createdAt,value
2022-08-14T00:01:50.265Z,22.20
2022-08-14T00:04:36.097Z,22.20
2022-08-14T00:07:11.067Z,22.20
2022-08-14T00:09:39.902Z,22.20
2022-08-14T00:12:33.204Z,22.20
2022-08-14T00:15:09.224Z,22.20
2022-08-14T00:17:38.155Z,22.10
2022-08-14T00:20:23.483Z,22.10
2022-08-14T00:22:57.589Z,22.10
2022-08-14T00:25:41.870Z,22.20
2022-08-14T00:28:15.439Z,22.20
2022-08-14T00:30:45.822Z,22.20
2022-08-14T00:33:15.516Z,22.20
2022-08-14T00:36:36.954Z,22.20
2022-08-14T00:38:49.460Z,22.10
2022-08-14T00:41:17.748Z,22.10
2022-08-14T00:43:45.829Z,22.10
2022-08-14T00:46:32.839Z,22.10
2022-08-14T00:49:02.293Z,22.00
2022-08-14T00:51:37.633Z,22.00
2022-08-14T00:54:16.798Z,22.00
2022-08-14T00:56:49.830Z,21.90
2022-08-14T00:59:17.037Z,22.00
2022-08-14T01:01:45.031Z,21.90
2022-08-14T01:04:38.478Z,21.90
2022-08-14T01:07:05.021Z,21.90
2022-08-14T01:09:37.480Z,21.90
2022-08-14T01:12:07.811Z,21.80
2022-08-14T01:14:35.861Z,21.80
2022-08-14T01:17:03.527Z,21.70
2022-08-14T01:19:50.120Z,21.70
2022-08-14T01:22:26.866Z,21.70
2022-08-14T01:24:54.609Z,21.60
2022-08-14T01:27:24.461Z,21.60
2022-08-14T01:30:03.845Z,21.60
2022-08-14T01:32:35.584Z,21.70
2022-08-14T01:35:18.069Z,21.70
2022-08-14T01:37:58.626Z,21.60
2022-08-14T01:40:37.014Z,21.50
2022-08-14T01:43:18.938Z,21.50
2022-08-14T01:46:06.323Z,21.50
2022-08-14T01:48:37.450Z,21.50
2022-08-14T01:51:05.742Z,21.50
2022-08-14T01:53:55.886Z,21.50
2022-08-14T01:56:37.497Z,21.50
2022-08-14T01:59:07.279Z,21.50
2022-08-14T02:01:38.167Z,21.50
2022-08-14T02:04:20.448Z,21.40
2022-08-14T02:06:57.513Z,21.40
2022-08-14T02:09:26.035Z,21.40
2022-08-14T02:11:54.833Z,21.40
2022-08-14T02:14:31.274Z,21.40
2022-08-14T02:17:00.184Z,21.40
2022-08-14T02:19:28.869Z,21.50
2022-08-14T02:22:02.803Z,21.70
2022-08-14T02:24:39.229Z,21.60
2022-08-14T02:28:25.582Z,21.60
2022-08-14T02:30:01.262Z,21.70
2022-08-14T02:32:46.367Z,21.60
2022-08-14T02:35:18.707Z,21.50
2022-08-14T02:37:49.124Z,21.50
2022-08-14T02:40:19.731Z,21.50
2022-08-14T02:42:54.704Z,21.40
2022-08-14T02:45:25.355Z,21.50
2022-08-14T02:48:00.415Z,21.50
2022-08-14T02:50:28.733Z,21.50
2022-08-14T02:53:02.977Z,21.60
2022-08-14T02:55:32.926Z,21.50
2022-08-14T02:58:03.157Z,21.40
2022-08-14T03:00:32.957Z,21.40
2022-08-14T03:03:07.720Z,21.40
2022-08-14T03:05:36.094Z,21.40
2022-08-14T03:08:08.121Z,21.50
2022-08-14T03:10:36.924Z,21.50
2022-08-14T03:13:19.313Z,21.40
2022-08-14T03:15:55.697Z,21.40
2022-08-14T03:18:30.651Z,21.40
2022-08-14T03:21:03.468Z,21.30
2022-08-14T03:23:40.326Z,21.40
2022-08-14T03:26:18.291Z,21.30
2022-08-14T03:28:48.431Z,21.30
2022-08-14T03:31:15.780Z,21.20
2022-08-14T03:33:43.754Z,21.10
2022-08-14T03:39:08.506Z,21.00
2022-08-14T03:39:15.030Z,20.90
2022-08-14T03:41:50.855Z,21.00
2022-08-14T03:45:26.345Z,20.80
2022-08-14T03:47:05.083Z,20.80
2022-08-14T03:49:32.541Z,20.80
2022-08-14T03:52:07.617Z,20.80
2022-08-14T03:54:52.580Z,20.80
2022-08-14T03:57:22.872Z,20.80
2022-08-14T03:59:51.340Z,20.80
2022-08-14T04:02:32.432Z,20.90
2022-08-14T04:05:11.950Z,20.90
2022-08-14T04:07:49.489Z,20.90
2022-08-14T04:10:32.047Z,20.80
2022-08-14T04:13:03.729Z,20.70
2022-08-14T04:15:32.184Z,20.60
2022-08-14T04:18:19.288Z,20.60
2022-08-14T04:20:51.531Z,20.70
2022-08-14T04:23:23.346Z,20.70
2022-08-14T04:25:54.405Z,20.70
2022-08-14T04:29:01.528Z,20.60
2022-08-14T04:31:10.333Z,20.70
2022-08-14T04:33:37.977Z,20.70
2022-08-14T04:36:06.432Z,20.80
2022-08-14T04:38:55.113Z,20.80
2022-08-14T04:41:43.362Z,20.80
2022-08-14T04:44:13.559Z,20.80
2022-08-14T04:47:17.348Z,20.90
2022-08-14T04:49:56.987Z,20.90
2022-08-14T04:52:25.411Z,20.90
2022-08-14T04:54:52.571Z,20.90
2022-08-14T04:57:22.861Z,20.80
2022-08-14T04:59:52.796Z,20.80
2022-08-14T05:02:21.720Z,20.70
2022-08-14T05:04:56.909Z,20.70
2022-08-14T05:07:46.851Z,20.70
2022-08-14T05:10:16.470Z,20.70
2022-08-14T05:13:13.233Z,20.70
2022-08-14T05:15:39.985Z,20.70
2022-08-14T05:18:17.298Z,20.60
2022-08-14T05:21:55.432Z,20.60
2022-08-14T05:23:37.465Z,20.70
2022-08-14T05:26:13.546Z,20.80
2022-08-14T05:28:46.300Z,20.90
2022-08-14T05:31:20.521Z,21.00
2022-08-14T05:33:54.795Z,21.10
2022-08-14T05:36:27.068Z,21.10
2022-08-14T05:38:54.200Z,21.20
2022-08-14T05:41:22.441Z,21.30
2022-08-14T05:43:50.022Z,21.30
2022-08-14T05:46:24.095Z,21.30
2022-08-14T05:48:53.344Z,21.40
2022-08-14T05:51:21.987Z,21.50
2022-08-14T05:54:00.377Z,21.60
2022-08-14T05:56:37.329Z,21.60
2022-08-14T05:59:05.529Z,21.70
2022-08-14T06:01:34.437Z,21.80
2022-08-14T06:04:04.459Z,22.10
2022-08-14T06:06:36.731Z,22.10
2022-08-14T06:09:05.604Z,22.10
2022-08-14T06:11:37.307Z,22.20
2022-08-14T06:14:06.628Z,22.30
2022-08-14T06:16:43.111Z,22.40
2022-08-14T06:19:18.258Z,22.60
2022-08-14T06:21:45.854Z,22.50
2022-08-14T06:24:18.829Z,22.50
2022-08-14T06:26:54.093Z,22.60
2022-08-14T06:29:24.022Z,22.60
2022-08-14T06:31:54.826Z,22.80
2022-08-14T06:35:03.967Z,22.80
2022-08-14T06:37:17.036Z,22.90
2022-08-14T06:39:44.316Z,22.90
2022-08-14T06:42:32.287Z,23.00
2022-08-14T06:44:58.636Z,23.10
2022-08-14T06:47:27.677Z,23.10
2022-08-14T06:49:58.126Z,23.30
2022-08-14T06:52:25.697Z,23.40
2022-08-14T06:54:52.504Z,23.40
2022-08-14T06:57:21.517Z,23.60
2022-08-14T06:59:48.551Z,23.70
2022-08-14T07:02:36.000Z,23.70
2022-08-14T07:05:23.636Z,23.80
2022-08-14T07:07:51.207Z,23.80
2022-08-14T07:10:18.090Z,24.00
2022-08-14T07:13:01.367Z,24.10
2022-08-14T07:15:32.680Z,24.10
2022-08-14T07:18:02.374Z,24.20
2022-08-14T07:20:32.168Z,24.10
2022-08-14T07:23:05.151Z,24.10
2022-08-14T07:25:37.792Z,24.10
2022-08-14T07:28:10.304Z,24.10
2022-08-14T07:30:50.465Z,24.20
2022-08-14T07:33:29.334Z,24.30
2022-08-14T07:36:01.987Z,24.50
2022-08-14T07:38:37.565Z,24.50
2022-08-14T07:41:06.921Z,24.70
2022-08-14T07:43:42.863Z,24.90
2022-08-14T07:46:11.155Z,25.00
2022-08-14T07:48:41.326Z,25.10
2022-08-14T07:51:11.155Z,25.20
2022-08-14T07:53:40.417Z,25.40
2022-08-14T07:56:21.479Z,25.50
2022-08-14T07:58:58.321Z,25.60
2022-08-14T08:01:27.655Z,25.60
2022-08-14T08:04:00.070Z,25.70
2022-08-14T08:06:29.445Z,25.80
2022-08-14T08:09:01.495Z,25.90
2022-08-14T08:11:34.818Z,25.90
2022-08-14T08:14:10.520Z,25.80
2022-08-14T08:16:47.226Z,25.90
2022-08-14T08:19:19.514Z,25.90
2022-08-14T08:21:48.122Z,26.00
2022-08-14T08:24:19.693Z,26.10
2022-08-14T08:26:50.571Z,26.20
2022-08-14T08:29:25.141Z,26.10
2022-08-14T08:32:01.782Z,26.00
2022-08-14T08:34:45.958Z,26.10
2022-08-14T08:37:15.101Z,26.20
2022-08-14T08:40:02.923Z,26.30
2022-08-14T08:42:38.668Z,26.30
2022-08-14T08:45:15.148Z,26.30
2022-08-14T08:47:45.372Z,26.30
2022-08-14T08:50:23.405Z,26.10
2022-08-14T08:53:02.181Z,26.00
2022-08-14T08:55:32.829Z,26.00
2022-08-14T08:58:02.752Z,26.00
2022-08-14T09:00:34.453Z,26.10
2022-08-14T09:03:06.066Z,26.10
2022-08-14T09:05:35.260Z,26.20
2022-08-14T09:08:30.323Z,26.30
2022-08-14T09:11:01.011Z,26.40
2022-08-14T09:13:27.895Z,26.50
2022-08-14T09:15:57.971Z,26.60
2022-08-14T09:18:27.102Z,26.60
2022-08-14T09:20:58.818Z,26.50
2022-08-14T09:23:27.427Z,26.50
2022-08-14T09:26:04.989Z,26.60
2022-08-14T09:28:47.614Z,26.70
2022-08-14T09:31:18.520Z,26.80
2022-08-14T09:33:58.257Z,26.90
2022-08-14T09:37:03.974Z,26.80
2022-08-14T09:39:57.640Z,26.80
2022-08-14T09:42:51.224Z,26.90
2022-08-14T09:45:19.563Z,26.90
2022-08-14T09:47:52.157Z,26.90
2022-08-14T09:50:26.825Z,26.90
2022-08-14T09:52:57.118Z,26.90
2022-08-14T09:55:27.775Z,27.10
2022-08-14T09:58:19.165Z,27.10
2022-08-14T10:00:48.982Z,27.00
2022-08-14T10:03:28.781Z,26.90
2022-08-14T10:06:05.375Z,26.90
2022-08-14T10:08:42.446Z,27.00
2022-08-14T10:11:19.430Z,27.10
2022-08-14T10:13:55.994Z,27.20
2022-08-14T10:16:27.353Z,27.20
2022-08-14T10:19:07.453Z,27.20
2022-08-14T10:23:11.270Z,27.30
2022-08-14T10:24:51.073Z,27.30
2022-08-14T10:27:23.371Z,27.50
2022-08-14T10:29:52.535Z,27.50
2022-08-14T10:32:28.456Z,27.60
2022-08-14T10:35:05.754Z,27.60
2022-08-14T10:37:38.655Z,27.70
2022-08-14T10:40:16.923Z,27.70
2022-08-14T10:42:56.764Z,27.80
2022-08-14T10:45:30.502Z,28.00
2022-08-14T10:48:08.760Z,28.00
2022-08-14T10:50:46.391Z,27.90
2022-08-14T10:53:14.497Z,28.00
2022-08-14T10:55:45.702Z,28.00
2022-08-14T10:58:14.992Z,27.90
2022-08-14T11:00:56.598Z,27.80
2022-08-14T11:03:26.735Z,27.90
2022-08-14T11:06:15.476Z,28.10
2022-08-14T11:08:42.682Z,28.20
2022-08-14T11:11:13.282Z,28.40
2022-08-14T11:13:46.394Z,28.40
2022-08-14T11:16:15.377Z,28.50
2022-08-14T11:18:51.087Z,28.60
2022-08-14T11:21:22.224Z,28.70
2022-08-14T11:23:53.438Z,28.90
2022-08-14T11:26:24.033Z,28.70
2022-08-14T11:28:53.592Z,28.90
2022-08-14T11:31:24.309Z,28.90
2022-08-14T11:33:55.367Z,28.80
2022-08-14T11:36:24.365Z,28.90
2022-08-14T11:39:19.045Z,28.90
2022-08-14T11:42:07.623Z,29.00
2022-08-14T11:44:53.570Z,29.00
2022-08-14T11:47:23.908Z,29.10
2022-08-14T11:49:51.878Z,29.10
2022-08-14T11:52:19.601Z,29.00
2022-08-14T11:54:58.376Z,28.90
2022-08-14T11:57:26.322Z,29.00
2022-08-14T12:00:02.433Z,29.00
2022-08-14T12:03:00.465Z,29.20
2022-08-14T12:05:27.921Z,29.50
2022-08-14T12:07:55.500Z,29.90
2022-08-14T12:10:25.701Z,30.30
2022-08-14T12:12:56.607Z,30.60
2022-08-14T12:15:32.655Z,30.60
2022-08-14T12:18:01.149Z,30.50
2022-08-14T12:20:33.327Z,30.70
2022-08-14T12:23:01.804Z,31.00
2022-08-14T12:25:30.223Z,31.30
2022-08-14T12:28:05.896Z,31.60
2022-08-14T12:30:40.147Z,31.50
2022-08-14T12:33:31.322Z,31.60
2022-08-14T12:36:05.541Z,31.90
2022-08-14T12:38:36.524Z,31.60
2022-08-14T12:41:09.100Z,31.50
2022-08-14T12:43:46.898Z,31.60
2022-08-14T12:46:28.615Z,31.70
2022-08-14T12:48:58.317Z,32.10
2022-08-14T12:51:27.660Z,32.20
2022-08-14T12:53:59.621Z,32.50
2022-08-14T12:56:33.419Z,32.30
2022-08-14T12:59:02.068Z,32.10
2022-08-14T13:01:31.919Z,32.30
2022-08-14T13:04:21.529Z,32.70
2022-08-14T13:06:50.940Z,33.20
2022-08-14T13:09:19.344Z,33.10
2022-08-14T13:11:49.512Z,33.20
2022-08-14T13:14:29.893Z,33.30
2022-08-14T13:16:58.878Z,33.50
2022-08-14T13:19:28.432Z,33.00
2022-08-14T13:22:05.367Z,33.00
2022-08-14T13:24:34.738Z,33.30
2022-08-14T13:27:04.687Z,33.10
2022-08-14T13:29:39.734Z,32.70
2022-08-14T13:32:09.520Z,33.00
2022-08-14T13:34:38.550Z,33.30
2022-08-14T13:37:07.310Z,33.10
2022-08-14T13:39:36.432Z,33.40
2022-08-14T13:42:13.539Z,33.90
2022-08-14T13:44:42.602Z,34.20
2022-08-14T13:47:15.982Z,34.70
2022-08-14T13:49:57.427Z,34.40
2022-08-14T13:52:51.740Z,34.10
2022-08-14T13:55:18.437Z,34.10
2022-08-14T13:57:57.840Z,34.00
2022-08-14T14:00:35.858Z,34.00
2022-08-14T14:03:06.853Z,34.50
2022-08-14T14:05:52.224Z,34.90
2022-08-14T14:08:46.995Z,34.40
2022-08-14T14:11:10.051Z,33.70
2022-08-14T14:13:41.815Z,33.10
2022-08-14T14:16:15.631Z,32.90
2022-08-14T14:18:56.538Z,33.20
2022-08-14T14:21:28.522Z,33.50
2022-08-14T14:23:56.231Z,33.40
2022-08-14T14:26:25.154Z,33.30
2022-08-14T14:28:56.999Z,33.10
2022-08-14T14:31:30.422Z,33.20
2022-08-14T14:34:01.046Z,33.20
2022-08-14T14:36:36.084Z,33.10
2022-08-14T14:39:05.260Z,32.90
2022-08-14T14:41:38.203Z,32.90
2022-08-14T14:44:06.676Z,33.00
2022-08-14T14:46:42.039Z,33.00
2022-08-14T14:49:14.348Z,33.10
2022-08-14T14:51:44.824Z,33.00
2022-08-14T14:54:17.149Z,32.90
2022-08-14T14:56:48.072Z,32.80
2022-08-14T14:59:18.584Z,32.80
2022-08-14T15:01:49.854Z,32.70
2022-08-14T15:04:20.849Z,32.60
2022-08-14T15:06:48.933Z,32.50
2022-08-14T15:09:17.979Z,32.40
2022-08-14T15:11:46.890Z,32.40
2022-08-14T15:14:55.707Z,32.40
2022-08-14T15:17:02.243Z,32.30
2022-08-14T15:19:31.880Z,32.30
2022-08-14T15:21:59.829Z,32.40
2022-08-14T15:24:27.221Z,32.40
2022-08-14T15:26:54.642Z,32.40
2022-08-14T15:29:21.501Z,32.50
2022-08-14T15:31:54.005Z,32.30
2022-08-14T15:34:43.805Z,32.30
2022-08-14T15:37:12.629Z,32.30
2022-08-14T15:39:41.172Z,32.20
2022-08-14T15:42:15.617Z,32.20
2022-08-14T15:44:58.217Z,32.30
2022-08-14T15:47:30.041Z,32.40
2022-08-14T15:49:59.688Z,32.50
2022-08-14T15:52:32.729Z,32.50
2022-08-14T15:55:04.579Z,32.60
2022-08-14T15:57:32.015Z,32.70
2022-08-14T16:00:37.931Z,32.70
2022-08-14T16:03:04.816Z,32.80
2022-08-14T16:05:38.503Z,33.00
2022-08-14T16:08:26.608Z,32.90
2022-08-14T16:10:55.826Z,32.90
2022-08-14T16:13:38.902Z,32.90
2022-08-14T16:16:34.919Z,32.70
2022-08-14T16:18:59.062Z,32.50
2022-08-14T16:21:29.599Z,32.20
2022-08-14T16:24:00.979Z,32.10
2022-08-14T16:26:29.974Z,32.00
2022-08-14T16:29:07.665Z,31.90
2022-08-14T16:31:39.858Z,31.90
2022-08-14T16:34:46.199Z,31.80
2022-08-14T16:36:58.888Z,31.80
2022-08-14T16:39:28.607Z,32.00
2022-08-14T16:41:58.745Z,31.80
2022-08-14T16:44:41.021Z,31.70
2022-08-14T16:47:13.176Z,31.60
2022-08-14T16:50:04.257Z,31.50
2022-08-14T16:52:44.827Z,31.50
2022-08-14T16:55:17.838Z,31.20
2022-08-14T16:57:50.119Z,31.20
2022-08-14T17:00:29.932Z,31.10
2022-08-14T17:03:04.005Z,31.00
2022-08-14T17:05:38.379Z,31.00
2022-08-14T17:08:33.075Z,31.00
2022-08-14T17:11:10.103Z,31.00
2022-08-14T17:13:57.832Z,31.00
2022-08-14T17:16:35.969Z,31.00
2022-08-14T17:19:13.929Z,30.90
2022-08-14T17:21:47.302Z,30.90
2022-08-14T17:27:07.809Z,30.70
2022-08-14T17:29:44.666Z,30.70
2022-08-14T17:32:29.696Z,30.50
2022-08-14T17:35:12.474Z,30.40
2022-08-14T17:37:55.892Z,30.30
2022-08-14T17:40:29.300Z,30.20
2022-08-14T17:43:01.995Z,30.20
2022-08-14T17:45:46.726Z,30.10
2022-08-14T17:49:10.899Z,29.90
2022-08-14T17:51:23.330Z,29.90
2022-08-14T17:54:01.245Z,29.80
2022-08-14T17:56:29.062Z,29.60
2022-08-14T17:59:04.072Z,29.50
2022-08-14T18:01:38.723Z,29.50
2022-08-14T18:04:25.366Z,29.40
2022-08-14T18:06:58.604Z,29.30
2022-08-14T18:09:38.613Z,29.30
2022-08-14T18:12:08.563Z,29.20
2022-08-14T18:14:48.363Z,29.20
2022-08-14T18:17:16.782Z,29.20
2022-08-14T18:19:44.595Z,29.10
2022-08-14T18:22:31.384Z,28.90
2022-08-14T18:25:02.091Z,28.70
2022-08-14T18:27:35.691Z,28.60
2022-08-14T18:30:36.515Z,28.50
2022-08-14T18:32:55.658Z,28.40
2022-08-14T18:35:24.346Z,28.30
2022-08-14T18:38:25.612Z,28.20
2022-08-14T18:40:55.137Z,28.10
2022-08-14T18:43:44.393Z,28.10
2022-08-14T18:46:59.711Z,27.90
2022-08-14T18:49:14.145Z,27.90
2022-08-14T18:51:45.551Z,27.80
2022-08-14T18:54:33.054Z,27.80
2022-08-14T18:57:03.407Z,27.70
2022-08-14T18:59:37.529Z,27.70
2022-08-14T19:02:44.627Z,27.70
2022-08-14T19:05:14.278Z,27.60
2022-08-14T19:07:41.772Z,27.60
2022-08-14T19:10:16.799Z,27.60
2022-08-14T19:13:11.480Z,27.50
2022-08-14T19:15:42.581Z,27.50
2022-08-14T19:18:26.454Z,27.50
2022-08-14T19:20:58.236Z,27.50
2022-08-14T19:23:42.669Z,27.50
2022-08-14T19:26:36.150Z,27.50
2022-08-14T19:29:36.243Z,27.50
2022-08-14T19:32:36.542Z,27.50
2022-08-14T19:35:16.590Z,27.50
2022-08-14T19:37:47.696Z,27.50
2022-08-14T19:40:29.279Z,27.40
2022-08-14T19:42:59.199Z,27.50
2022-08-14T19:45:27.433Z,27.40
2022-08-14T19:47:54.524Z,27.40
2022-08-14T19:50:38.440Z,27.50
2022-08-14T19:53:11.824Z,27.40
2022-08-14T19:55:56.648Z,27.40
2022-08-14T19:58:30.227Z,27.40
2022-08-14T20:01:08.738Z,27.30
2022-08-14T20:04:00.341Z,27.30
2022-08-14T20:06:37.376Z,27.30
2022-08-14T20:11:03.430Z,27.20
2022-08-14T20:12:04.520Z,27.20
2022-08-14T20:14:36.955Z,27.20
2022-08-14T20:17:06.930Z,27.20
2022-08-14T20:19:38.044Z,27.20
2022-08-14T20:22:36.426Z,27.30
2022-08-14T20:25:15.175Z,27.20
2022-08-14T20:27:44.317Z,27.20
2022-08-14T20:30:33.712Z,27.10
2022-08-14T20:33:07.529Z,27.10
2022-08-14T20:35:42.058Z,27.10
2022-08-14T20:38:31.406Z,27.10
2022-08-14T20:41:06.776Z,27.10
2022-08-14T20:43:59.834Z,27.10
2022-08-14T20:46:32.243Z,27.10
2022-08-14T20:49:10.861Z,27.10
2022-08-14T20:51:47.501Z,26.90
2022-08-14T20:54:33.849Z,26.90
2022-08-14T20:57:09.747Z,26.80
2022-08-14T20:59:39.851Z,26.70
2022-08-14T21:02:29.600Z,26.60
2022-08-14T21:04:58.528Z,26.60
2022-08-14T21:07:36.611Z,26.60
2022-08-14T21:10:35.665Z,26.60
2022-08-14T21:13:25.829Z,26.50
2022-08-14T21:15:44.834Z,26.60
2022-08-14T21:18:28.624Z,26.60
2022-08-14T21:20:57.665Z,26.50
2022-08-14T21:23:32.347Z,26.40
2022-08-14T21:26:00.435Z,26.40
2022-08-14T21:28:29.995Z,26.40
2022-08-14T21:31:01.674Z,26.40
2022-08-14T21:33:31.386Z,26.30
2022-08-14T21:36:00.588Z,26.30
2022-08-14T21:38:38.026Z,26.20
2022-08-14T21:41:41.388Z,26.10
2022-08-14T21:44:17.507Z,26.10
2022-08-14T21:46:49.622Z,26.10
2022-08-14T21:49:23.689Z,26.10
2022-08-14T21:52:48.816Z,26.00
2022-08-14T21:54:49.316Z,26.00
2022-08-14T21:57:55.644Z,26.00
2022-08-14T22:00:34.953Z,26.00
2022-08-14T22:03:00.447Z,25.90
2022-08-14T22:05:30.178Z,25.90
2022-08-14T22:07:57.710Z,25.90
2022-08-14T22:10:25.201Z,25.90
2022-08-14T22:13:00.701Z,26.00
2022-08-14T22:15:30.009Z,25.90
2022-08-14T22:17:58.468Z,25.90
2022-08-14T22:20:28.378Z,25.80
2022-08-14T22:23:02.968Z,25.80
2022-08-14T22:25:32.979Z,25.70
2022-08-14T22:28:03.355Z,25.80
2022-08-14T22:30:30.595Z,25.70
2022-08-14T22:33:00.038Z,25.70
2022-08-14T22:35:28.383Z,25.70
2022-08-14T22:38:34.435Z,25.70
2022-08-14T22:41:07.594Z,25.70
2022-08-14T22:43:35.955Z,25.70
2022-08-14T22:46:06.233Z,25.70
2022-08-14T22:48:43.360Z,25.70
2022-08-14T22:51:13.428Z,25.70
2022-08-14T22:53:42.934Z,25.60
2022-08-14T22:56:20.365Z,25.40
2022-08-14T22:58:53.857Z,25.40
2022-08-14T23:01:55.743Z,25.40
2022-08-14T23:04:35.248Z,25.30
2022-08-14T23:07:22.352Z,25.30
2022-08-14T23:09:56.199Z,25.30
2022-08-14T23:12:27.631Z,25.30
2022-08-14T23:14:56.318Z,25.30
2022-08-14T23:17:23.173Z,25.30
2022-08-14T23:19:56.422Z,25.40
2022-08-14T23:22:24.324Z,25.30
2022-08-14T23:24:58.021Z,25.30
2022-08-14T23:27:32.086Z,25.30
2022-08-14T23:30:31.477Z,25.30
2022-08-14T23:33:02.796Z,25.30
2022-08-14T23:35:34.397Z,25.30
2022-08-14T23:38:05.541Z,25.20
2022-08-14T23:40:37.742Z,25.30
2022-08-14T23:43:09.287Z,25.20
2022-08-14T23:45:39.341Z,25.30
2022-08-14T23:48:12.644Z,25.40
2022-08-14T23:50:44.258Z,25.30
2022-08-14T23:53:28.228Z,25.20
2022-08-14T23:56:07.661Z,25.10
2022-08-14T23:58:36.893Z,25.20
